createdAt,value
2018-07-09T00:00:22.346Z,66.00
2018-07-09T00:01:22.354Z,66.26
2018-07-09T00:02:22.380Z,65.59
2018-07-09T00:03:22.392Z,66.36
2018-07-09T00:04:22.408Z,66.36
2018-07-09T00:05:22.829Z,66.26
2018-07-09T00:06:22.484Z,66.26
2018-07-09T00:07:22.455Z,66.36
2018-07-09T00:08:22.475Z,66.46
2018-07-09T00:09:22.488Z,66.84
2018-07-09T00:10:22.504Z,67.22
2018-07-09T00:11:22.523Z,67.03
2018-07-09T00:12:22.535Z,67.32
2018-07-09T00:13:22.554Z,67.13
2018-07-09T00:14:22.568Z,67.13
2018-07-09T00:15:22.584Z,67.13
2018-07-09T00:16:22.600Z,67.70
2018-07-09T00:17:22.624Z,67.03
2018-07-09T00:18:22.638Z,67.13
2018-07-09T00:19:22.650Z,67.22
2018-07-09T00:20:22.666Z,67.22
2018-07-09T00:21:22.682Z,67.13
2018-07-09T00:22:22.799Z,67.90
2018-07-09T00:23:22.715Z,67.76
2018-07-09T00:24:23.263Z,68.15
2018-07-09T00:25:22.761Z,68.15
2018-07-09T00:26:22.784Z,68.24
2018-07-09T00:27:22.781Z,68.15
2018-07-09T00:28:22.801Z,68.05
2018-07-09T00:29:22.817Z,68.91
2018-07-09T00:30:22.829Z,68.53
2018-07-09T00:31:22.845Z,68.91
2018-07-09T00:32:22.953Z,68.15
2018-07-09T00:33:22.877Z,68.34
2018-07-09T00:34:22.896Z,68.53
2018-07-09T00:35:22.956Z,68.63
2018-07-09T00:36:22.926Z,68.63
2018-07-09T00:37:23.072Z,69.01
2018-07-09T00:38:23.000Z,69.07
2018-07-09T00:39:23.076Z,69.46
2018-07-09T00:40:22.993Z,69.56
2018-07-09T00:41:23.010Z,69.84
2018-07-09T00:42:23.025Z,70.42
2018-07-09T00:43:23.055Z,70.42
2018-07-09T00:44:23.066Z,69.84
2018-07-09T00:45:23.076Z,70.13
2018-07-09T00:46:23.092Z,70.32
2018-07-09T00:47:23.115Z,70.13
2018-07-09T00:48:23.130Z,70.42
2018-07-09T00:49:23.140Z,70.80
2018-07-09T00:50:23.156Z,70.42
2018-07-09T00:51:23.172Z,70.13
2018-07-09T00:52:23.195Z,70.61
2018-07-09T00:53:23.208Z,70.61
2018-07-09T00:54:23.229Z,71.19
2018-07-09T00:55:23.260Z,70.70
2018-07-09T00:56:23.303Z,71.37
2018-07-09T00:57:23.318Z,70.32
2018-07-09T00:58:23.283Z,71.47
2018-07-09T00:59:23.299Z,70.61
2018-07-09T01:00:23.315Z,71.09
2018-07-09T01:01:23.336Z,71.86
2018-07-09T01:02:23.348Z,72.05
2018-07-09T01:03:23.365Z,71.86
2018-07-09T01:04:23.382Z,71.09
2018-07-09T01:05:23.400Z,71.47
2018-07-09T01:06:23.417Z,71.95
2018-07-09T01:07:23.429Z,72.43
2018-07-09T01:08:23.446Z,72.33
2018-07-09T01:09:23.464Z,71.86
2018-07-09T01:10:23.709Z,72.05
2018-07-09T01:12:23.911Z,72.14
2018-07-09T01:13:23.527Z,72.63
2018-07-09T01:14:23.543Z,72.05
2018-07-09T01:15:23.559Z,72.24
2018-07-09T01:16:23.582Z,73.00
2018-07-09T01:17:23.593Z,72.63
2018-07-09T01:18:23.608Z,72.63
2018-07-09T01:19:23.627Z,72.33
2018-07-09T01:20:23.695Z,72.05
2018-07-09T01:21:23.660Z,72.14
2018-07-09T01:22:23.672Z,73.00
2018-07-09T01:23:23.689Z,72.53
2018-07-09T01:24:23.697Z,73.16
2018-07-09T01:25:23.714Z,73.16
2018-07-09T01:26:23.849Z,73.16
2018-07-09T01:27:23.747Z,73.55
2018-07-09T01:28:23.762Z,73.26
2018-07-09T01:29:23.778Z,73.35
2018-07-09T01:30:23.794Z,73.83
2018-07-09T01:31:23.812Z,73.55
2018-07-09T01:32:23.828Z,73.55
2018-07-09T01:33:23.843Z,73.45
2018-07-09T01:34:23.864Z,73.74
2018-07-09T01:35:23.877Z,74.02
2018-07-09T01:36:23.893Z,74.31
2018-07-09T01:37:23.913Z,74.31
2018-07-09T01:38:23.923Z,74.41
2018-07-09T01:39:23.939Z,74.02
2018-07-09T01:40:23.954Z,73.83
2018-07-09T01:41:23.983Z,73.83
2018-07-09T01:42:24.001Z,74.31
2018-07-09T01:43:24.015Z,74.02
2018-07-09T01:44:24.128Z,74.31
2018-07-09T01:46:24.141Z,74.60
2018-07-09T01:47:24.068Z,74.89
2018-07-09T01:48:24.088Z,74.95
2018-07-09T01:49:24.102Z,75.43
2018-07-09T01:50:24.127Z,75.14
2018-07-09T01:51:24.133Z,76.19
2018-07-09T01:52:24.147Z,76.19
2018-07-09T01:53:24.173Z,76.00
2018-07-09T01:54:24.185Z,75.81
2018-07-09T01:55:24.195Z,75.62
2018-07-09T01:56:24.217Z,75.27
2018-07-09T01:57:24.228Z,75.27
2018-07-09T01:58:24.245Z,75.37
2018-07-09T01:59:24.267Z,75.52
2018-07-09T02:00:24.276Z,75.62
2018-07-09T02:01:24.297Z,75.81
2018-07-09T02:02:24.308Z,75.71
2018-07-09T02:03:24.327Z,76.19
2018-07-09T02:04:24.339Z,75.81
2018-07-09T02:05:24.359Z,75.85
2018-07-09T02:06:24.374Z,75.56
2018-07-09T02:07:24.408Z,75.85
2018-07-09T02:08:24.404Z,75.81
2018-07-09T02:09:24.425Z,75.71
2018-07-09T02:10:24.439Z,76.48
2018-07-09T02:11:24.456Z,75.90
2018-07-09T02:12:24.470Z,76.00
2018-07-09T02:13:24.484Z,76.29
2018-07-09T02:14:24.500Z,76.39
2018-07-09T02:15:24.515Z,76.39
2018-07-09T02:16:24.735Z,76.57
2018-07-09T02:17:24.846Z,76.19
2018-07-09T02:18:24.591Z,76.48
2018-07-09T02:19:24.579Z,75.71
2018-07-09T02:20:24.644Z,76.57
2018-07-09T02:21:24.619Z,76.29
2018-07-09T02:22:24.628Z,76.77
2018-07-09T02:23:24.644Z,76.10
2018-07-09T02:24:24.660Z,76.77
2018-07-09T02:25:24.677Z,76.19
2018-07-09T02:26:24.693Z,76.96
2018-07-09T02:27:24.717Z,76.96
2018-07-09T02:28:24.724Z,76.86
2018-07-09T02:29:24.752Z,77.34
2018-07-09T02:30:24.756Z,77.15
2018-07-09T02:31:24.770Z,77.53
2018-07-09T02:32:24.804Z,76.96
2018-07-09T02:33:24.811Z,76.77
2018-07-09T02:34:24.818Z,77.44
2018-07-09T02:35:24.840Z,77.82
2018-07-09T02:36:24.860Z,77.15
2018-07-09T02:37:24.878Z,76.67
2018-07-09T02:38:24.891Z,77.44
2018-07-09T02:39:24.897Z,77.15
2018-07-09T02:40:24.916Z,77.34
2018-07-09T02:41:24.934Z,77.15
2018-07-09T02:42:24.952Z,77.53
2018-07-09T02:43:24.961Z,77.53
2018-07-09T02:44:25.028Z,77.34
2018-07-09T02:45:24.993Z,77.63
2018-07-09T02:46:25.071Z,77.82
2018-07-09T02:47:25.045Z,77.63
2018-07-09T02:48:25.043Z,77.73
2018-07-09T02:49:25.160Z,77.53
2018-07-09T02:50:25.133Z,77.44
2018-07-09T02:51:25.126Z,78.20
2018-07-09T02:52:25.224Z,77.92
2018-07-09T02:53:25.361Z,78.40
2018-07-09T02:54:25.275Z,78.74
2018-07-09T02:55:25.270Z,79.16
2018-07-09T02:56:25.217Z,78.78
2018-07-09T02:57:25.183Z,77.82
2018-07-09T02:58:25.201Z,78.36
2018-07-09T02:59:25.234Z,78.93
2018-07-09T03:00:25.231Z,79.03
2018-07-09T03:01:25.247Z,78.49
2018-07-09T03:02:25.264Z,79.07
2018-07-09T03:03:25.292Z,79.32
2018-07-09T03:04:25.293Z,79.22
2018-07-09T03:05:25.312Z,79.32
2018-07-09T03:06:25.327Z,79.60
2018-07-09T03:07:25.775Z,79.32
2018-07-09T03:08:25.358Z,79.89
2018-07-09T03:09:25.373Z,80.27
2018-07-09T03:10:25.389Z,80.37
2018-07-09T03:11:25.408Z,80.94
2018-07-09T03:12:25.419Z,80.18
2018-07-09T03:13:25.436Z,80.66
2018-07-09T03:14:25.495Z,80.37
2018-07-09T03:15:25.470Z,80.47
2018-07-09T03:16:25.487Z,79.80
2018-07-09T03:17:25.503Z,79.93
2018-07-09T03:18:25.522Z,80.27
2018-07-09T03:19:25.540Z,79.89
2018-07-09T03:20:25.549Z,79.70
2018-07-09T03:21:25.562Z,79.60
2018-07-09T03:22:25.579Z,80.47
2018-07-09T03:23:25.643Z,80.56
2018-07-09T03:24:25.743Z,80.66
2018-07-09T03:25:26.069Z,81.23
2018-07-09T03:26:25.640Z,81.71
2018-07-09T03:27:25.657Z,82.19
2018-07-09T03:28:25.673Z,81.52
2018-07-09T03:29:25.688Z,81.71
2018-07-09T03:30:25.712Z,82.19
2018-07-09T03:31:25.724Z,82.53
2018-07-09T03:32:25.738Z,83.11
2018-07-09T03:33:25.752Z,83.39
2018-07-09T03:34:25.783Z,83.20
2018-07-09T03:35:25.786Z,82.82
2018-07-09T03:36:25.801Z,82.63
2018-07-09T03:37:25.816Z,83.11
2018-07-09T03:38:25.830Z,83.44
2018-07-09T03:39:25.850Z,82.38
2018-07-09T03:40:25.861Z,83.05
2018-07-09T03:41:25.881Z,83.15
2018-07-09T03:42:25.895Z,83.05
2018-07-09T03:43:25.913Z,83.72
2018-07-09T03:44:25.924Z,83.53
2018-07-09T03:45:25.947Z,83.05
2018-07-09T03:46:25.978Z,82.96
2018-07-09T03:47:26.114Z,83.15
2018-07-09T03:48:25.986Z,82.76
2018-07-09T03:49:26.002Z,82.57
2018-07-09T03:50:26.018Z,82.38
2018-07-09T03:51:26.035Z,84.01
2018-07-09T03:52:26.052Z,83.25
2018-07-09T03:53:26.065Z,83.72
2018-07-09T03:54:26.081Z,83.44
2018-07-09T03:55:26.095Z,84.01
2018-07-09T03:56:26.116Z,83.72
2018-07-09T03:57:26.183Z,83.44
2018-07-09T03:58:26.146Z,83.25
2018-07-09T03:59:26.198Z,83.72
2018-07-09T04:00:26.179Z,83.44
2018-07-09T04:01:26.194Z,83.44
2018-07-09T04:02:26.210Z,84.11
2018-07-09T04:03:26.221Z,83.92
2018-07-09T04:04:26.240Z,83.92
2018-07-09T04:05:26.253Z,84.11
2018-07-09T04:06:26.272Z,83.72
2018-07-09T04:07:26.283Z,83.72
2018-07-09T04:08:26.358Z,83.34
2018-07-09T04:09:26.509Z,83.15
2018-07-09T04:10:26.331Z,83.53
2018-07-09T04:11:26.346Z,83.44
2018-07-09T04:12:26.391Z,83.25
2018-07-09T04:13:26.379Z,83.92
2018-07-09T04:14:26.399Z,84.11
2018-07-09T04:15:26.410Z,83.53
2018-07-09T04:16:26.427Z,83.53
2018-07-09T04:17:26.442Z,83.82
2018-07-09T04:18:26.457Z,82.96
2018-07-09T04:19:26.475Z,83.05
2018-07-09T04:20:26.488Z,83.72
2018-07-09T04:21:26.515Z,83.34
2018-07-09T04:22:26.527Z,83.82
2018-07-09T04:23:26.538Z,82.96
2018-07-09T04:24:26.553Z,82.90
2018-07-09T04:25:26.570Z,82.86
2018-07-09T04:26:26.597Z,83.82
2018-07-09T04:27:26.602Z,83.72
2018-07-09T04:28:26.613Z,84.68
2018-07-09T04:29:26.629Z,84.78
2018-07-09T04:30:26.650Z,85.16
2018-07-09T04:31:26.684Z,84.97
2018-07-09T04:32:26.685Z,84.88
2018-07-09T04:33:26.789Z,84.88
2018-07-09T04:34:26.827Z,84.78
2018-07-09T04:35:27.924Z,85.16
2018-07-09T04:36:26.747Z,84.72
2018-07-09T04:37:28.306Z,83.86
2018-07-09T04:38:28.323Z,83.14
2018-07-09T04:39:27.197Z,82.90
2018-07-09T04:40:26.823Z,83.58
2018-07-09T04:41:26.823Z,83.86
2018-07-09T04:42:26.988Z,84.25
2018-07-09T04:43:28.296Z,85.01
2018-07-09T04:44:26.878Z,84.72
2018-07-09T04:45:26.887Z,84.91
2018-07-09T04:47:27.144Z,84.91
2018-07-09T04:48:28.606Z,85.11
2018-07-09T04:49:26.997Z,84.91
2018-07-09T04:50:26.962Z,85.30
2018-07-09T04:51:27.005Z,85.58
2018-07-09T04:52:27.042Z,85.39
2018-07-09T04:53:27.086Z,84.34
2018-07-09T04:54:27.044Z,84.05
2018-07-09T04:55:27.056Z,84.63
2018-07-09T04:56:27.095Z,84.34
2018-07-09T04:57:27.196Z,84.34
2018-07-09T04:58:27.135Z,84.34
2018-07-09T04:59:27.104Z,84.44
2018-07-09T05:00:27.132Z,84.91
2018-07-09T05:01:27.144Z,84.91
2018-07-09T05:02:27.169Z,84.82
2018-07-09T05:03:27.180Z,84.53
2018-07-09T05:04:27.216Z,84.86
2018-07-09T05:05:27.228Z,84.67
2018-07-09T05:06:27.218Z,84.44
2018-07-09T05:07:27.317Z,85.21
2018-07-09T05:08:27.376Z,84.63
2018-07-09T05:09:27.270Z,85.39
2018-07-09T05:10:27.299Z,85.49
2018-07-09T05:11:27.309Z,85.97
2018-07-09T05:12:27.317Z,85.78
2018-07-09T05:13:27.328Z,86.35
2018-07-09T05:14:27.344Z,85.88
2018-07-09T05:15:27.362Z,86.25
2018-07-09T05:16:27.381Z,86.25
2018-07-09T05:17:27.675Z,86.35
2018-07-09T05:18:27.524Z,86.45
2018-07-09T05:19:27.424Z,86.74
2018-07-09T05:20:27.439Z,86.25
2018-07-09T05:21:27.729Z,85.82
2018-07-09T05:22:27.476Z,85.72
2018-07-09T05:23:27.484Z,86.49
2018-07-09T05:24:27.501Z,85.82
2018-07-09T05:25:27.522Z,86.01
2018-07-09T05:26:27.611Z,85.92
2018-07-09T05:27:27.553Z,85.88
2018-07-09T05:28:27.565Z,86.16
2018-07-09T05:29:27.580Z,86.83
2018-07-09T05:30:27.599Z,86.45
2018-07-09T05:31:27.611Z,86.68
2018-07-09T05:32:28.528Z,86.40
2018-07-09T05:34:27.912Z,85.72
2018-07-09T05:35:27.680Z,85.34
2018-07-09T05:36:28.752Z,85.10
2018-07-09T05:37:27.707Z,84.91
2018-07-09T05:38:27.726Z,84.71
2018-07-09T05:39:27.798Z,85.48
2018-07-09T05:42:27.790Z,85.38
2018-07-09T05:43:27.838Z,85.72
2018-07-09T05:44:27.859Z,86.01
2018-07-09T05:45:27.852Z,86.78
2018-07-09T05:46:27.852Z,85.96
2018-07-09T05:47:27.874Z,85.48
2018-07-09T05:48:28.134Z,85.67
2018-07-09T05:49:27.934Z,85.38
2018-07-09T05:50:28.527Z,85.86
2018-07-09T05:51:27.933Z,85.67
2018-07-09T05:52:27.948Z,85.67
2018-07-09T05:53:28.093Z,85.96
2018-07-09T05:54:27.978Z,85.38
2018-07-09T05:55:27.996Z,85.38
2018-07-09T05:56:28.007Z,84.71
2018-07-09T05:57:28.026Z,84.91
2018-07-09T05:58:28.044Z,85.00
2018-07-09T05:59:28.061Z,84.27
2018-07-09T06:00:28.076Z,83.89
2018-07-09T06:01:28.217Z,84.18
2018-07-09T06:02:28.588Z,84.08
2018-07-09T06:03:28.133Z,83.22
2018-07-09T06:04:28.136Z,83.54
2018-07-09T06:05:28.185Z,83.64
2018-07-09T06:06:28.172Z,82.68
2018-07-09T06:07:28.915Z,83.07
2018-07-09T06:08:28.197Z,83.36
2018-07-09T06:09:28.219Z,83.07
2018-07-09T06:10:28.236Z,82.78
2018-07-09T06:11:28.299Z,82.78
2018-07-09T06:12:28.274Z,82.20
2018-07-09T06:13:28.392Z,82.30
2018-07-09T06:14:28.364Z,81.38
2018-07-09T06:15:28.319Z,82.05
2018-07-09T06:16:28.348Z,81.28
2018-07-09T06:17:28.360Z,80.71
2018-07-09T06:18:28.372Z,80.71
2018-07-09T06:19:28.490Z,80.80
2018-07-09T06:20:28.392Z,80.80
2018-07-09T06:21:28.693Z,80.90
2018-07-09T06:22:28.426Z,80.22
2018-07-09T06:23:28.442Z,79.94
2018-07-09T06:24:28.461Z,80.04
2018-07-09T06:25:28.485Z,80.27
2018-07-09T06:26:28.493Z,80.65
2018-07-09T06:27:28.508Z,80.46
2018-07-09T06:28:28.527Z,79.88
2018-07-09T06:29:28.549Z,79.98
2018-07-09T06:30:28.586Z,80.17
2018-07-09T06:31:28.661Z,80.46
2018-07-09T06:32:28.599Z,80.42
2018-07-09T06:33:28.615Z,80.27
2018-07-09T06:34:28.623Z,80.42
2018-07-09T06:35:28.640Z,80.42
2018-07-09T06:36:29.484Z,81.09
2018-07-09T06:37:28.687Z,80.51
2018-07-09T06:39:28.715Z,80.99
2018-07-09T06:40:28.723Z,80.90
2018-07-09T06:41:28.740Z,79.60
2018-07-09T06:42:28.761Z,79.88
2018-07-09T06:43:28.773Z,79.75
2018-07-09T06:45:29.228Z,81.28
2018-07-09T06:46:28.903Z,80.51
2018-07-09T06:47:29.492Z,81.32
2018-07-09T06:48:28.882Z,79.88
2018-07-09T06:49:28.898Z,79.60
2018-07-09T06:50:28.897Z,79.98
2018-07-09T06:51:28.902Z,78.92
2018-07-09T06:52:28.920Z,79.30
2018-07-09T06:53:28.978Z,79.50
2018-07-09T06:54:28.950Z,79.88
2018-07-09T06:56:28.986Z,80.07
2018-07-09T06:57:29.026Z,80.55
2018-07-09T06:58:29.040Z,79.79
2018-07-09T06:59:29.037Z,78.15
2018-07-09T07:00:29.051Z,78.38
2018-07-09T07:01:29.065Z,78.48
2018-07-09T07:02:30.023Z,77.90
2018-07-09T07:03:29.645Z,77.81
2018-07-09T07:04:29.148Z,78.09
2018-07-09T07:05:29.235Z,77.23
2018-07-09T07:06:29.880Z,77.23
2018-07-09T07:07:29.180Z,77.61
2018-07-09T07:08:29.192Z,77.90
2018-07-09T07:09:29.223Z,78.09
2018-07-09T07:10:29.269Z,77.42
2018-07-09T07:11:29.245Z,77.04
2018-07-09T07:12:29.256Z,77.61
2018-07-09T07:13:29.297Z,77.81
2018-07-09T07:14:29.380Z,78.19
2018-07-09T07:15:29.302Z,78.09
2018-07-09T07:16:29.399Z,77.71
2018-07-09T07:17:29.674Z,77.71
2018-07-09T07:18:29.356Z,77.90
2018-07-09T07:19:29.369Z,77.71
2018-07-09T07:20:29.388Z,77.26
2018-07-09T07:21:29.402Z,77.08
2018-07-09T07:22:29.433Z,76.31
2018-07-09T07:23:29.457Z,76.40
2018-07-09T07:24:29.453Z,76.01
2018-07-09T07:25:29.484Z,75.73
2018-07-09T07:27:29.495Z,75.63
2018-07-09T07:28:29.520Z,74.48
2018-07-09T07:29:29.534Z,74.76
2018-07-09T07:30:29.545Z,75.92
2018-07-09T07:31:29.742Z,75.92
2018-07-09T07:32:29.680Z,75.49
2018-07-09T07:33:29.595Z,75.34
2018-07-09T07:34:29.617Z,74.73
2018-07-09T07:35:29.630Z,75.11
2018-07-09T07:36:29.654Z,74.82
2018-07-09T07:37:30.377Z,74.29
2018-07-09T07:38:29.680Z,73.61
2018-07-09T07:39:29.730Z,73.61
2018-07-09T07:40:29.715Z,73.42
2018-07-09T07:41:29.943Z,73.51
2018-07-09T07:42:29.749Z,73.32
2018-07-09T07:43:30.644Z,73.99
2018-07-09T07:44:29.884Z,74.48
2018-07-09T07:45:29.803Z,73.55
2018-07-09T07:46:29.818Z,70.86
2018-07-09T07:47:29.833Z,70.95
2018-07-09T07:48:30.199Z,69.60
2018-07-09T07:49:30.354Z,70.37
2018-07-09T07:50:29.977Z,70.89
2018-07-09T07:51:29.912Z,70.89
2018-07-09T07:52:30.199Z,70.89
2018-07-09T07:53:30.001Z,70.60
2018-07-09T07:54:30.026Z,70.12
2018-07-09T07:55:29.986Z,70.98
2018-07-09T07:56:29.984Z,70.41
2018-07-09T07:57:30.003Z,69.15
2018-07-09T07:58:30.073Z,69.25
2018-07-09T07:59:30.105Z,70.12
2018-07-09T08:01:30.070Z,69.70
2018-07-09T08:02:30.086Z,70.56
2018-07-09T08:03:30.111Z,70.62
2018-07-09T08:04:30.123Z,70.43
2018-07-09T08:05:30.139Z,70.95
2018-07-09T08:07:30.175Z,71.62
2018-07-09T08:08:30.189Z,71.04
2018-07-09T08:09:31.487Z,71.24
2018-07-09T08:10:30.233Z,71.43
2018-07-09T08:11:47.725Z,71.53
2018-07-09T08:13:01.003Z,71.62
2018-07-09T08:13:30.290Z,71.04
2018-07-09T08:14:30.295Z,70.09
2018-07-09T08:15:31.041Z,72.11
2018-07-09T08:16:31.455Z,70.37
2018-07-09T08:17:31.425Z,70.47
2018-07-09T08:18:30.886Z,71.43
2018-07-09T08:19:30.437Z,70.95
2018-07-09T08:20:30.394Z,70.98
2018-07-09T08:21:30.612Z,69.51
2018-07-09T08:22:31.468Z,69.93
2018-07-09T08:23:30.444Z,69.70
2018-07-09T08:25:30.664Z,69.60
2018-07-09T08:26:30.493Z,69.64
2018-07-09T08:27:32.008Z,69.45
2018-07-09T08:28:31.922Z,69.45
2018-07-09T08:29:30.562Z,69.15
2018-07-09T08:30:30.602Z,68.87
2018-07-09T08:31:30.592Z,69.64
2018-07-09T08:32:30.799Z,68.93
2018-07-09T08:33:30.617Z,70.18
2018-07-09T08:34:30.626Z,70.47
2018-07-09T08:35:30.692Z,70.95
2018-07-09T08:36:30.663Z,71.14
2018-07-09T08:37:30.689Z,69.89
2018-07-09T08:38:30.769Z,69.79
2018-07-09T08:39:30.720Z,69.51
2018-07-09T08:40:30.740Z,70.37
2018-07-09T08:41:30.745Z,69.93
2018-07-09T08:42:30.761Z,69.45
2018-07-09T08:43:30.777Z,69.54
2018-07-09T08:44:31.775Z,68.68
2018-07-09T08:45:30.811Z,68.87
2018-07-09T08:46:31.311Z,68.48
2018-07-09T08:47:31.127Z,68.48
2018-07-09T08:48:31.858Z,68.29
2018-07-09T08:49:31.500Z,68.77
2018-07-09T08:50:31.312Z,69.15
2018-07-09T08:51:31.047Z,69.25
2018-07-09T08:52:31.210Z,68.68
2018-07-09T08:53:31.088Z,69.45
2018-07-09T08:54:31.133Z,68.87
2018-07-09T08:55:31.116Z,68.77
2018-07-09T08:56:31.512Z,68.99
2018-07-09T08:57:31.017Z,67.84
2018-07-09T08:58:31.056Z,69.25
2018-07-09T08:59:31.063Z,68.23
2018-07-09T09:00:31.081Z,67.26
2018-07-09T09:01:31.105Z,68.04
2018-07-09T09:02:31.166Z,67.65
2018-07-09T09:03:31.128Z,67.55
2018-07-09T09:04:31.148Z,66.69
2018-07-09T09:05:31.146Z,66.52
2018-07-09T09:06:31.168Z,65.85
2018-07-09T09:07:31.183Z,65.98
2018-07-09T09:08:31.195Z,65.59
2018-07-09T09:09:31.214Z,65.98
2018-07-09T09:10:31.231Z,65.98
2018-07-09T09:11:31.249Z,65.59
2018-07-09T09:12:31.265Z,65.63
2018-07-09T09:13:31.280Z,64.95
2018-07-09T09:14:31.675Z,64.11
2018-07-09T09:15:31.332Z,62.95
2018-07-09T09:16:32.081Z,62.57
2018-07-09T09:17:31.723Z,62.95
2018-07-09T09:18:31.368Z,63.18
2018-07-09T09:19:31.584Z,63.82
2018-07-09T09:20:31.405Z,62.95
2018-07-09T09:21:31.518Z,63.79
2018-07-09T09:22:31.474Z,64.37
2018-07-09T09:23:31.775Z,64.37
2018-07-09T09:24:31.749Z,64.18
2018-07-09T09:25:31.558Z,64.18
2018-07-09T09:26:31.858Z,64.37
2018-07-09T09:27:31.597Z,64.47
2018-07-09T09:30:31.660Z,64.37
2018-07-09T09:31:31.622Z,64.28
2018-07-09T09:32:31.618Z,64.21
2018-07-09T09:33:31.633Z,63.73
2018-07-09T09:34:31.669Z,63.92
2018-07-09T09:35:31.701Z,64.08
2018-07-09T09:36:31.706Z,64.18
2018-07-09T09:37:32.267Z,65.05
2018-07-09T09:38:31.920Z,64.40
2018-07-09T09:39:31.767Z,64.11
2018-07-09T09:41:31.828Z,63.37
2018-07-09T09:42:31.792Z,63.47
2018-07-09T09:43:31.826Z,63.82
2018-07-09T09:44:32.705Z,64.92
2018-07-09T09:45:32.123Z,63.66
2018-07-09T09:47:32.094Z,64.08
2018-07-09T09:48:32.670Z,64.76
2018-07-09T09:49:31.965Z,65.08
2018-07-09T09:50:31.946Z,64.89
2018-07-09T09:51:31.970Z,64.31
2018-07-09T09:52:31.975Z,64.50
2018-07-09T09:53:32.018Z,64.47
2018-07-09T09:54:32.014Z,64.18
2018-07-09T09:55:32.039Z,64.89
2018-07-09T09:56:32.068Z,65.08
2018-07-09T09:57:32.064Z,63.53
2018-07-09T09:58:32.101Z,64.50
2018-07-09T09:59:32.113Z,65.37
2018-07-09T10:00:33.212Z,65.08
2018-07-09T10:01:32.713Z,64.59
2018-07-09T10:02:32.153Z,64.40
2018-07-09T10:03:32.191Z,64.31
2018-07-09T10:04:32.212Z,64.21
2018-07-09T10:05:32.458Z,64.50
2018-07-09T10:06:32.768Z,64.69
2018-07-09T10:07:32.323Z,65.05
2018-07-09T10:08:32.323Z,65.75
2018-07-09T10:10:32.317Z,64.50
2018-07-09T10:11:32.742Z,64.92
2018-07-09T10:12:32.351Z,63.56
2018-07-09T10:13:32.352Z,63.37
2018-07-09T10:14:32.374Z,63.69
2018-07-09T10:15:32.866Z,63.69
2018-07-09T10:17:32.520Z,63.95
2018-07-09T10:18:32.483Z,63.95
2018-07-09T10:19:32.491Z,63.66
2018-07-09T10:20:32.693Z,63.89
2018-07-09T10:21:32.574Z,63.60
2018-07-09T10:22:32.646Z,63.34
2018-07-09T10:23:32.956Z,62.92
2018-07-09T10:24:32.715Z,62.85
2018-07-09T10:25:32.695Z,62.95
2018-07-09T10:27:32.613Z,62.37
2018-07-09T10:28:32.624Z,62.37
2018-07-09T10:29:32.680Z,62.08
2018-07-09T10:30:32.751Z,62.95
2018-07-09T10:31:32.715Z,63.02
2018-07-09T10:32:32.699Z,63.47
2018-07-09T10:33:32.748Z,64.50
2018-07-09T10:34:32.755Z,64.98
2018-07-09T10:35:32.829Z,65.53
2018-07-09T10:36:32.801Z,65.56
2018-07-09T10:37:32.818Z,65.95
2018-07-09T10:38:32.809Z,65.56
2018-07-09T10:39:32.901Z,65.66
2018-07-09T10:40:32.893Z,66.72
2018-07-09T10:41:33.027Z,66.05
2018-07-09T10:42:32.954Z,65.47
2018-07-09T10:43:32.912Z,65.75
2018-07-09T10:44:32.941Z,65.47
2018-07-09T10:45:32.935Z,65.72
2018-07-09T10:46:33.585Z,66.59
2018-07-09T10:47:32.976Z,67.07
2018-07-09T10:48:32.991Z,66.63
2018-07-09T10:49:33.027Z,66.82
2018-07-09T10:50:33.142Z,66.75
2018-07-09T10:51:33.246Z,65.98
2018-07-09T10:52:33.063Z,65.59
2018-07-09T10:53:33.080Z,64.92
2018-07-09T10:54:33.094Z,64.92
2018-07-09T10:55:33.198Z,65.20
2018-07-09T10:56:33.177Z,66.08
2018-07-09T10:57:33.165Z,64.43
2018-07-09T10:59:33.853Z,65.88
2018-07-09T11:00:33.601Z,66.24
2018-07-09T11:01:33.223Z,66.08
2018-07-09T11:02:33.266Z,65.78
2018-07-09T11:03:33.358Z,65.59
2018-07-09T11:04:33.278Z,66.24
2018-07-09T11:05:33.350Z,66.17
2018-07-09T11:06:33.314Z,65.20
2018-07-09T11:07:33.332Z,66.27
2018-07-09T11:08:33.347Z,65.88
2018-07-09T11:09:33.372Z,65.47
2018-07-09T11:11:33.404Z,67.27
2018-07-09T11:12:33.421Z,67.46
2018-07-09T11:13:33.439Z,67.65
2018-07-09T11:14:33.697Z,67.55
2018-07-09T11:15:34.192Z,67.85
2018-07-09T11:16:33.815Z,67.55
2018-07-09T11:17:34.310Z,68.33
2018-07-09T11:18:33.990Z,67.36
2018-07-09T11:19:33.546Z,67.27
2018-07-09T11:20:33.576Z,67.75
2018-07-09T11:21:33.747Z,68.33
2018-07-09T11:22:33.599Z,68.62
2018-07-09T11:23:33.812Z,67.94
2018-07-09T11:24:33.635Z,68.33
2018-07-09T11:25:33.656Z,68.62
2018-07-09T11:26:33.719Z,68.23
2018-07-09T11:27:33.939Z,68.23
2018-07-09T11:28:33.722Z,68.04
2018-07-09T11:29:33.758Z,68.81
2018-07-09T11:30:33.765Z,68.04
2018-07-09T11:31:33.754Z,67.75
2018-07-09T11:32:33.850Z,68.33
2018-07-09T11:33:33.799Z,67.55
2018-07-09T11:34:33.814Z,67.27
2018-07-09T11:35:33.839Z,67.17
2018-07-09T11:36:34.469Z,67.85
2018-07-09T11:37:34.368Z,67.36
2018-07-09T11:39:34.351Z,67.69
2018-07-09T11:40:34.308Z,66.33
2018-07-09T11:41:33.954Z,66.63
2018-07-09T11:42:33.956Z,66.72
2018-07-09T11:43:33.967Z,65.75
2018-07-09T11:44:34.087Z,66.14
2018-07-09T11:45:34.205Z,66.63
2018-07-09T11:46:34.215Z,66.24
2018-07-09T11:47:34.778Z,66.53
2018-07-09T11:49:34.761Z,66.17
2018-07-09T11:50:34.433Z,65.98
2018-07-09T11:52:34.442Z,66.27
2018-07-09T11:53:34.913Z,65.92
2018-07-09T11:54:34.318Z,66.30
2018-07-09T11:55:34.513Z,64.85
2018-07-09T11:56:34.412Z,64.18
2018-07-09T11:57:34.484Z,64.66
2018-07-09T11:58:34.448Z,64.18
2018-07-09T11:59:34.492Z,63.92
2018-07-09T12:00:34.601Z,63.69
2018-07-09T12:01:34.392Z,64.82
2018-07-09T12:02:34.634Z,65.34
2018-07-09T12:03:34.340Z,64.18
2018-07-09T12:04:34.391Z,64.56
2018-07-09T12:05:34.656Z,64.95
2018-07-09T12:06:34.684Z,65.88
2018-07-09T12:07:35.011Z,66.63
2018-07-09T12:08:34.414Z,67.69
2018-07-09T12:09:34.449Z,66.63
2018-07-09T12:10:34.452Z,66.72
2018-07-09T12:11:34.473Z,66.72
2018-07-09T12:12:34.553Z,66.33
2018-07-09T12:13:34.506Z,66.91
2018-07-09T12:14:34.584Z,68.20
2018-07-09T12:15:34.552Z,66.66
2018-07-09T12:16:34.684Z,65.98
2018-07-09T12:17:34.590Z,65.43
2018-07-09T12:18:35.669Z,65.59
2018-07-09T12:19:34.615Z,64.47
2018-07-09T12:20:34.643Z,66.01
2018-07-09T12:21:34.765Z,65.34
2018-07-09T12:22:34.677Z,64.11
2018-07-09T12:23:34.741Z,63.82
2018-07-09T12:24:34.706Z,63.31
2018-07-09T12:25:34.731Z,63.73
2018-07-09T12:26:34.743Z,63.53
2018-07-09T12:27:34.983Z,65.08
2018-07-09T12:28:35.134Z,64.01
2018-07-09T12:29:35.118Z,63.73
2018-07-09T12:30:35.029Z,62.88
2018-07-09T12:31:34.995Z,63.66
2018-07-09T12:32:34.873Z,62.24
2018-07-09T12:33:34.899Z,62.73
2018-07-09T12:34:34.918Z,62.76
2018-07-09T12:35:35.123Z,63.18
2018-07-09T12:36:35.187Z,62.21
2018-07-09T12:37:35.921Z,63.08
2018-07-09T12:39:35.840Z,61.18
2018-07-09T12:40:35.152Z,60.95
2018-07-09T12:41:35.341Z,60.75
2018-07-09T12:42:35.338Z,60.40
2018-07-09T12:43:35.591Z,61.18
2018-07-09T12:44:35.295Z,60.33
2018-07-09T12:45:35.679Z,60.43
2018-07-09T12:46:35.238Z,61.21
2018-07-09T12:47:35.144Z,60.24
2018-07-09T12:48:35.394Z,60.30
2018-07-09T12:49:35.196Z,61.76
2018-07-09T12:50:35.255Z,62.53
2018-07-09T12:51:35.364Z,61.18
2018-07-09T12:52:35.500Z,61.08
2018-07-09T12:53:35.270Z,60.11
2018-07-09T12:54:35.686Z,60.98
2018-07-09T12:55:35.306Z,60.98
2018-07-09T12:56:35.322Z,59.46
2018-07-09T12:57:35.342Z,59.84
2018-07-09T12:59:35.391Z,58.33
2018-07-09T13:00:35.400Z,57.26
2018-07-09T13:01:35.588Z,56.90
2018-07-09T13:02:35.441Z,57.78
2018-07-09T13:03:35.466Z,57.22
2018-07-09T13:04:35.497Z,57.57
2018-07-09T13:05:35.875Z,54.63
2018-07-09T13:06:35.528Z,55.04
2018-07-09T13:07:35.583Z,54.39
2018-07-09T13:08:35.584Z,53.22
2018-07-09T13:09:35.598Z,53.83
2018-07-09T13:10:35.628Z,55.50
2018-07-09T13:11:36.076Z,54.92
2018-07-09T13:12:36.013Z,54.82
2018-07-09T13:13:35.697Z,55.26
2018-07-09T13:14:35.801Z,57.62
2018-07-09T13:15:35.752Z,60.30
2018-07-09T13:16:35.752Z,60.40
2018-07-09T13:17:35.784Z,60.47
2018-07-09T13:19:35.976Z,60.59
2018-07-09T13:20:35.842Z,59.82